sensor_id;sensor_type;location;lat;lon;timestamp;temperature;humidity
10083;DHT22;5080;48.528;8.078;2023-03-23T00:01:30;13.10;99.90
10083;DHT22;5080;48.528;8.078;2023-03-23T00:04:02;13.10;99.90
10083;DHT22;5080;48.528;8.078;2023-03-23T00:06:31;13.10;99.90
10083;DHT22;5080;48.528;8.078;2023-03-23T00:08:58;13.10;99.90
10083;DHT22;5080;48.528;8.078;2023-03-23T00:11:28;13.10;99.90
10083;DHT22;5080;48.528;8.078;2023-03-23T00:13:56;13.30;99.90
10083;DHT22;5080;48.528;8.078;2023-03-23T00:16:28;13.10;99.90
10083;DHT22;5080;48.528;8.078;2023-03-23T00:18:57;13.10;99.90
10083;DHT22;5080;48.528;8.078;2023-03-23T00:21:25;13.10;99.90
10083;DHT22;5080;48.528;8.078;2023-03-23T00:24:02;13.10;99.90
10083;DHT22;5080;48.528;8.078;2023-03-23T00:26:29;13.20;99.90
10083;DHT22;5080;48.528;8.078;2023-03-23T00:28:59;13.10;99.90
10083;DHT22;5080;48.528;8.078;2023-03-23T00:31:27;13.10;99.90
10083;DHT22;5080;48.528;8.078;2023-03-23T00:33:57;13.20;99.90
10083;DHT22;5080;48.528;8.078;2023-03-23T00:36:24;13.20;99.90
10083;DHT22;5080;48.528;8.078;2023-03-23T00:38:51;13.20;99.90
10083;DHT22;5080;48.528;8.078;2023-03-23T00:41:19;13.20;99.90
10083;DHT22;5080;48.528;8.078;2023-03-23T00:43:46;13.40;99.90
10083;DHT22;5080;48.528;8.078;2023-03-23T00:46:14;13.30;99.90
10083;DHT22;5080;48.528;8.078;2023-03-23T00:48:40;13.30;99.90
10083;DHT22;5080;48.528;8.078;2023-03-23T00:51:10;13.40;99.90
10083;DHT22;5080;48.528;8.078;2023-03-23T00:53:37;13.30;99.90
10083;DHT22;5080;48.528;8.078;2023-03-23T00:56:05;13.30;99.90
10083;DHT22;5080;48.528;8.078;2023-03-23T00:58:34;13.20;99.90
10083;DHT22;5080;48.528;8.078;2023-03-23T01:01:02;13.20;99.90
10083;DHT22;5080;48.528;8.078;2023-03-23T01:03:30;13.20;99.90
10083;DHT22;5080;48.528;8.078;2023-03-23T01:05:57;13.20;99.90
10083;DHT22;5080;48.528;8.078;2023-03-23T01:08:24;13.20;99.90
10083;DHT22;5080;48.528;8.078;2023-03-23T01:11:02;13.10;99.90
10083;DHT22;5080;48.528;8.078;2023-03-23T01:13:29;13.10;99.90
10083;DHT22;5080;48.528;8.078;2023-03-23T01:15:58;13.10;99.90
10083;DHT22;5080;48.528;8.078;2023-03-23T01:18:25;13.10;99.90
10083;DHT22;5080;48.528;8.078;2023-03-23T01:20:51;13.10;99.90
10083;DHT22;5080;48.528;8.078;2023-03-23T01:23:18;13.20;99.90
10083;DHT22;5080;48.528;8.078;2023-03-23T01:25:45;13.20;99.90
10083;DHT22;5080;48.528;8.078;2023-03-23T01:28:12;13.10;99.90
10083;DHT22;5080;48.528;8.078;2023-03-23T01:30:39;13.20;99.90
10083;DHT22;5080;48.528;8.078;2023-03-23T01:33:07;13.10;99.90
10083;DHT22;5080;48.528;8.078;2023-03-23T01:35:37;13.10;99.90
10083;DHT22;5080;48.528;8.078;2023-03-23T01:38:04;13.10;99.90
10083;DHT22;5080;48.528;8.078;2023-03-23T01:40:31;13.10;99.90
10083;DHT22;5080;48.528;8.078;2023-03-23T01:42:58;13.20;99.90
10083;DHT22;5080;48.528;8.078;2023-03-23T01:45:31;13.10;99.90
10083;DHT22;5080;48.528;8.078;2023-03-23T01:48:12;13.10;99.90
10083;DHT22;5080;48.528;8.078;2023-03-23T01:50:45;13.00;99.90
10083;DHT22;5080;48.528;8.078;2023-03-23T01:53:14;13.00;99.90
10083;DHT22;5080;48.528;8.078;2023-03-23T01:55:43;13.00;99.90
10083;DHT22;5080;48.528;8.078;2023-03-23T01:58:14;13.00;99.90
10083;DHT22;5080;48.528;8.078;2023-03-23T02:00:43;13.10;99.90
10083;DHT22;5080;48.528;8.078;2023-03-23T02:03:12;13.10;99.90
10083;DHT22;5080;48.528;8.078;2023-03-23T02:05:42;13.10;99.90
10083;DHT22;5080;48.528;8.078;2023-03-23T02:08:09;13.10;99.90
10083;DHT22;5080;48.528;8.078;2023-03-23T02:10:39;13.20;99.90
10083;DHT22;5080;48.528;8.078;2023-03-23T02:13:08;13.10;99.90
10083;DHT22;5080;48.528;8.078;2023-03-23T02:15:43;13.10;99.90
10083;DHT22;5080;48.528;8.078;2023-03-23T02:18:29;13.10;99.90
10083;DHT22;5080;48.528;8.078;2023-03-23T02:24:26;13.20;99.90
10083;DHT22;5080;48.528;8.078;2023-03-23T02:27:00;13.20;99.90
10083;DHT22;5080;48.528;8.078;2023-03-23T02:29:52;13.30;99.90
10083;DHT22;5080;48.528;8.078;2023-03-23T02:32:50;13.30;99.90
10083;DHT22;5080;48.528;8.078;2023-03-23T02:35:24;13.30;99.90
10083;DHT22;5080;48.528;8.078;2023-03-23T02:37:56;13.30;99.90
10083;DHT22;5080;48.528;8.078;2023-03-23T02:40:27;13.30;99.90
10083;DHT22;5080;48.528;8.078;2023-03-23T02:42:55;13.30;99.90
10083;DHT22;5080;48.528;8.078;2023-03-23T02:45:25;13.40;99.90
10083;DHT22;5080;48.528;8.078;2023-03-23T02:47:55;13.40;99.90
10083;DHT22;5080;48.528;8.078;2023-03-23T02:50:25;13.40;99.90
10083;DHT22;5080;48.528;8.078;2023-03-23T02:52:54;13.40;99.90
10083;DHT22;5080;48.528;8.078;2023-03-23T02:55:24;13.40;99.90
10083;DHT22;5080;48.528;8.078;2023-03-23T02:57:52;13.40;99.90
10083;DHT22;5080;48.528;8.078;2023-03-23T03:00:19;13.50;99.90
10083;DHT22;5080;48.528;8.078;2023-03-23T03:02:48;13.50;99.90
10083;DHT22;5080;48.528;8.078;2023-03-23T03:05:26;13.50;99.90
10083;DHT22;5080;48.528;8.078;2023-03-23T03:08:06;13.50;99.90
10083;DHT22;5080;48.528;8.078;2023-03-23T03:10:41;13.60;99.90
10083;DHT22;5080;48.528;8.078;2023-03-23T03:13:14;13.70;99.90
10083;DHT22;5080;48.528;8.078;2023-03-23T03:15:47;13.80;99.90
10083;DHT22;5080;48.528;8.078;2023-03-23T03:18:21;13.90;99.90
10083;DHT22;5080;48.528;8.078;2023-03-23T03:20:53;13.90;99.90
10083;DHT22;5080;48.528;8.078;2023-03-23T03:23:22;14.00;99.90
10083;DHT22;5080;48.528;8.078;2023-03-23T03:25:50;14.20;99.90
10083;DHT22;5080;48.528;8.078;2023-03-23T03:28:20;14.20;99.90
10083;DHT22;5080;48.528;8.078;2023-03-23T03:30:49;14.20;99.90
10083;DHT22;5080;48.528;8.078;2023-03-23T03:33:19;14.30;99.90
10083;DHT22;5080;48.528;8.078;2023-03-23T03:35:53;14.20;99.90
10083;DHT22;5080;48.528;8.078;2023-03-23T03:38:21;14.20;99.90
10083;DHT22;5080;48.528;8.078;2023-03-23T03:40:48;14.20;99.90
10083;DHT22;5080;48.528;8.078;2023-03-23T03:43:15;14.20;99.90
10083;DHT22;5080;48.528;8.078;2023-03-23T03:45:42;14.20;99.90
10083;DHT22;5080;48.528;8.078;2023-03-23T03:48:10;14.30;99.90
10083;DHT22;5080;48.528;8.078;2023-03-23T03:50:37;14.30;99.90
10083;DHT22;5080;48.528;8.078;2023-03-23T03:53:05;14.30;99.90
10083;DHT22;5080;48.528;8.078;2023-03-23T03:55:33;14.30;99.90
10083;DHT22;5080;48.528;8.078;2023-03-23T03:58:01;14.30;99.90
10083;DHT22;5080;48.528;8.078;2023-03-23T04:00:30;14.20;99.90
10083;DHT22;5080;48.528;8.078;2023-03-23T04:02:56;14.20;99.90
10083;DHT22;5080;48.528;8.078;2023-03-23T04:05:25;14.20;99.90
10083;DHT22;5080;48.528;8.078;2023-03-23T04:07:54;14.20;99.90
10083;DHT22;5080;48.528;8.078;2023-03-23T04:10:29;14.00;99.90
10083;DHT22;5080;48.528;8.078;2023-03-23T04:12:57;14.00;99.90
10083;DHT22;5080;48.528;8.078;2023-03-23T04:15:24;14.00;99.90
10083;DHT22;5080;48.528;8.078;2023-03-23T04:17:51;14.00;99.90
10083;DHT22;5080;48.528;8.078;2023-03-23T04:20:18;14.00;99.90
10083;DHT22;5080;48.528;8.078;2023-03-23T04:22:46;14.00;99.90
10083;DHT22;5080;48.528;8.078;2023-03-23T04:25:15;14.00;99.90
10083;DHT22;5080;48.528;8.078;2023-03-23T04:27:44;14.00;99.90
10083;DHT22;5080;48.528;8.078;2023-03-23T04:30:13;14.10;99.90
10083;DHT22;5080;48.528;8.078;2023-03-23T04:32:40;14.00;99.90
10083;DHT22;5080;48.528;8.078;2023-03-23T04:35:08;14.10;99.90
10083;DHT22;5080;48.528;8.078;2023-03-23T04:37:36;14.10;99.90
10083;DHT22;5080;48.528;8.078;2023-03-23T04:40:05;14.00;99.90
10083;DHT22;5080;48.528;8.078;2023-03-23T04:42:37;14.00;99.90
10083;DHT22;5080;48.528;8.078;2023-03-23T04:45:07;14.00;99.90
10083;DHT22;5080;48.528;8.078;2023-03-23T04:47:35;14.00;99.90
10083;DHT22;5080;48.528;8.078;2023-03-23T04:50:07;14.00;99.90
10083;DHT22;5080;48.528;8.078;2023-03-23T04:52:35;14.00;99.90
10083;DHT22;5080;48.528;8.078;2023-03-23T04:55:04;14.10;99.90
10083;DHT22;5080;48.528;8.078;2023-03-23T04:57:31;13.90;99.90
10083;DHT22;5080;48.528;8.078;2023-03-23T04:59:58;13.90;99.90
10083;DHT22;5080;48.528;8.078;2023-03-23T05:02:27;13.90;99.90
10083;DHT22;5080;48.528;8.078;2023-03-23T05:04:55;13.90;99.90
10083;DHT22;5080;48.528;8.078;2023-03-23T05:07:22;13.90;99.90
10083;DHT22;5080;48.528;8.078;2023-03-23T05:09:50;13.90;99.90
10083;DHT22;5080;48.528;8.078;2023-03-23T05:12:17;13.90;99.90
10083;DHT22;5080;48.528;8.078;2023-03-23T05:14:44;13.90;99.90
10083;DHT22;5080;48.528;8.078;2023-03-23T05:17:10;14.00;99.90
10083;DHT22;5080;48.528;8.078;2023-03-23T05:19:39;13.90;99.90
10083;DHT22;5080;48.528;8.078;2023-03-23T05:22:09;13.80;99.90
10083;DHT22;5080;48.528;8.078;2023-03-23T05:24:38;13.80;99.90
10083;DHT22;5080;48.528;8.078;2023-03-23T05:27:05;13.80;99.90
10083;DHT22;5080;48.528;8.078;2023-03-23T05:29:33;13.80;99.90
10083;DHT22;5080;48.528;8.078;2023-03-23T05:32:01;13.80;99.90
10083;DHT22;5080;48.528;8.078;2023-03-23T05:34:29;13.80;99.90
10083;DHT22;5080;48.528;8.078;2023-03-23T05:36:59;13.80;99.90
10083;DHT22;5080;48.528;8.078;2023-03-23T05:39:27;13.80;99.90
10083;DHT22;5080;48.528;8.078;2023-03-23T05:41:54;13.80;99.90
10083;DHT22;5080;48.528;8.078;2023-03-23T05:44:21;13.80;99.90
10083;DHT22;5080;48.528;8.078;2023-03-23T05:46:49;13.80;99.90
10083;DHT22;5080;48.528;8.078;2023-03-23T05:49:16;13.80;99.90
10083;DHT22;5080;48.528;8.078;2023-03-23T05:51:43;13.80;99.90
10083;DHT22;5080;48.528;8.078;2023-03-23T05:54:12;13.90;99.90
10083;DHT22;5080;48.528;8.078;2023-03-23T05:56:40;13.90;99.90
10083;DHT22;5080;48.528;8.078;2023-03-23T05:59:07;13.90;99.90
10083;DHT22;5080;48.528;8.078;2023-03-23T06:01:35;13.90;99.90
10083;DHT22;5080;48.528;8.078;2023-03-23T06:04:02;14.00;99.90
10083;DHT22;5080;48.528;8.078;2023-03-23T06:06:30;14.00;99.90
10083;DHT22;5080;48.528;8.078;2023-03-23T06:08:58;14.00;99.90
10083;DHT22;5080;48.528;8.078;2023-03-23T06:11:26;14.00;99.90
10083;DHT22;5080;48.528;8.078;2023-03-23T06:13:53;14.00;99.90
10083;DHT22;5080;48.528;8.078;2023-03-23T06:16:20;13.90;99.90
10083;DHT22;5080;48.528;8.078;2023-03-23T06:18:47;13.90;99.90
10083;DHT22;5080;48.528;8.078;2023-03-23T06:21:15;13.80;99.90
10083;DHT22;5080;48.528;8.078;2023-03-23T06:23:44;13.70;99.90
10083;DHT22;5080;48.528;8.078;2023-03-23T06:26:12;13.60;99.90
10083;DHT22;5080;48.528;8.078;2023-03-23T06:28:43;13.50;99.90
10083;DHT22;5080;48.528;8.078;2023-03-23T06:31:10;13.50;99.90
10083;DHT22;5080;48.528;8.078;2023-03-23T06:33:39;13.50;99.90
10083;DHT22;5080;48.528;8.078;2023-03-23T06:36:07;13.50;99.90
10083;DHT22;5080;48.528;8.078;2023-03-23T06:38:34;13.50;99.90
10083;DHT22;5080;48.528;8.078;2023-03-23T06:41:01;13.50;99.90
10083;DHT22;5080;48.528;8.078;2023-03-23T06:43:28;13.50;99.90
10083;DHT22;5080;48.528;8.078;2023-03-23T06:45:58;13.60;99.90
10083;DHT22;5080;48.528;8.078;2023-03-23T06:48:25;13.60;99.90
10083;DHT22;5080;48.528;8.078;2023-03-23T06:50:53;13.60;99.90
10083;DHT22;5080;48.528;8.078;2023-03-23T06:53:20;13.60;99.90
10083;DHT22;5080;48.528;8.078;2023-03-23T06:55:47;13.60;99.90
10083;DHT22;5080;48.528;8.078;2023-03-23T06:58:14;13.60;99.90
10083;DHT22;5080;48.528;8.078;2023-03-23T07:00:41;13.60;99.90
10083;DHT22;5080;48.528;8.078;2023-03-23T07:03:11;13.60;99.90
10083;DHT22;5080;48.528;8.078;2023-03-23T07:05:38;13.60;99.90
10083;DHT22;5080;48.528;8.078;2023-03-23T07:08:05;13.70;99.90
10083;DHT22;5080;48.528;8.078;2023-03-23T07:10:32;13.80;99.90
10083;DHT22;5080;48.528;8.078;2023-03-23T07:12:59;13.80;99.90
10083;DHT22;5080;48.528;8.078;2023-03-23T07:15:26;13.80;99.90
10083;DHT22;5080;48.528;8.078;2023-03-23T07:17:53;13.80;99.90
10083;DHT22;5080;48.528;8.078;2023-03-23T07:20:22;14.00;99.90
10083;DHT22;5080;48.528;8.078;2023-03-23T07:22:49;13.80;99.90
10083;DHT22;5080;48.528;8.078;2023-03-23T07:25:16;13.80;99.90
10083;DHT22;5080;48.528;8.078;2023-03-23T07:27:44;13.80;99.90
10083;DHT22;5080;48.528;8.078;2023-03-23T07:30:12;13.80;99.90
10083;DHT22;5080;48.528;8.078;2023-03-23T07:32:39;13.80;99.90
10083;DHT22;5080;48.528;8.078;2023-03-23T07:35:07;13.90;99.90
10083;DHT22;5080;48.528;8.078;2023-03-23T07:37:35;13.90;99.90
10083;DHT22;5080;48.528;8.078;2023-03-23T07:40:03;13.90;99.90
10083;DHT22;5080;48.528;8.078;2023-03-23T07:42:40;13.90;99.90
10083;DHT22;5080;48.528;8.078;2023-03-23T07:45:08;13.90;99.90
10083;DHT22;5080;48.528;8.078;2023-03-23T07:47:34;14.00;99.90
10083;DHT22;5080;48.528;8.078;2023-03-23T07:50:02;13.90;99.90
10083;DHT22;5080;48.528;8.078;2023-03-23T07:52:29;13.90;99.90
10083;DHT22;5080;48.528;8.078;2023-03-23T07:54:58;13.90;99.90
10083;DHT22;5080;48.528;8.078;2023-03-23T07:57:26;13.90;99.90
10083;DHT22;5080;48.528;8.078;2023-03-23T07:59:53;13.90;99.90
10083;DHT22;5080;48.528;8.078;2023-03-23T08:02:21;14.00;99.90
10083;DHT22;5080;48.528;8.078;2023-03-23T08:04:48;14.00;99.90
10083;DHT22;5080;48.528;8.078;2023-03-23T08:07:15;14.00;99.90
10083;DHT22;5080;48.528;8.078;2023-03-23T08:09:42;14.10;99.90
10083;DHT22;5080;48.528;8.078;2023-03-23T08:12:11;14.10;99.90
10083;DHT22;5080;48.528;8.078;2023-03-23T08:14:37;14.20;99.90
10083;DHT22;5080;48.528;8.078;2023-03-23T08:17:05;14.20;99.90
10083;DHT22;5080;48.528;8.078;2023-03-23T08:19:32;14.20;99.90
10083;DHT22;5080;48.528;8.078;2023-03-23T08:22:02;14.20;99.90
10083;DHT22;5080;48.528;8.078;2023-03-23T08:24:29;14.20;99.90
10083;DHT22;5080;48.528;8.078;2023-03-23T08:26:56;14.20;99.90
10083;DHT22;5080;48.528;8.078;2023-03-23T08:29:24;14.30;99.90
10083;DHT22;5080;48.528;8.078;2023-03-23T08:31:51;14.40;99.90
10083;DHT22;5080;48.528;8.078;2023-03-23T08:34:19;14.40;99.90
10083;DHT22;5080;48.528;8.078;2023-03-23T08:36:46;14.40;99.90
10083;DHT22;5080;48.528;8.078;2023-03-23T08:39:13;14.50;99.90
10083;DHT22;5080;48.528;8.078;2023-03-23T08:41:41;14.50;99.90
10083;DHT22;5080;48.528;8.078;2023-03-23T08:44:09;14.50;99.90
10083;DHT22;5080;48.528;8.078;2023-03-23T08:46:37;14.60;99.90
10083;DHT22;5080;48.528;8.078;2023-03-23T08:49:04;14.60;99.90
10083;DHT22;5080;48.528;8.078;2023-03-23T08:51:31;14.70;99.90
10083;DHT22;5080;48.528;8.078;2023-03-23T08:53:58;14.60;99.90
10083;DHT22;5080;48.528;8.078;2023-03-23T08:56:25;14.70;99.90
10083;DHT22;5080;48.528;8.078;2023-03-23T08:58:52;14.70;99.90
10083;DHT22;5080;48.528;8.078;2023-03-23T09:01:20;14.70;99.90
10083;DHT22;5080;48.528;8.078;2023-03-23T09:03:48;14.70;99.90
10083;DHT22;5080;48.528;8.078;2023-03-23T09:06:15;14.70;99.90
10083;DHT22;5080;48.528;8.078;2023-03-23T09:08:42;14.80;99.90
10083;DHT22;5080;48.528;8.078;2023-03-23T09:11:10;14.80;99.90
10083;DHT22;5080;48.528;8.078;2023-03-23T09:13:38;14.90;99.90
10083;DHT22;5080;48.528;8.078;2023-03-23T09:16:07;14.90;99.90
10083;DHT22;5080;48.528;8.078;2023-03-23T09:18:34;14.90;99.90
10083;DHT22;5080;48.528;8.078;2023-03-23T09:21:03;14.80;99.90
10083;DHT22;5080;48.528;8.078;2023-03-23T09:23:31;14.80;99.90
10083;DHT22;5080;48.528;8.078;2023-03-23T09:26:00;14.70;99.90
10083;DHT22;5080;48.528;8.078;2023-03-23T09:28:27;14.70;99.90
10083;DHT22;5080;48.528;8.078;2023-03-23T09:30:56;14.60;99.90
10083;DHT22;5080;48.528;8.078;2023-03-23T09:33:25;14.60;99.90
10083;DHT22;5080;48.528;8.078;2023-03-23T09:35:52;14.60;99.90
10083;DHT22;5080;48.528;8.078;2023-03-23T09:38:21;14.70;99.90
10083;DHT22;5080;48.528;8.078;2023-03-23T09:40:49;14.70;99.90
10083;DHT22;5080;48.528;8.078;2023-03-23T09:43:25;14.80;99.90
10083;DHT22;5080;48.528;8.078;2023-03-23T09:46:03;14.80;99.90
10083;DHT22;5080;48.528;8.078;2023-03-23T09:48:41;14.90;99.90
10083;DHT22;5080;48.528;8.078;2023-03-23T09:51:20;14.90;99.90
10083;DHT22;5080;48.528;8.078;2023-03-23T09:53:53;14.90;99.90
10083;DHT22;5080;48.528;8.078;2023-03-23T09:56:29;15.00;99.90
10083;DHT22;5080;48.528;8.078;2023-03-23T09:59:00;15.00;99.90
10083;DHT22;5080;48.528;8.078;2023-03-23T10:01:33;15.10;99.90
10083;DHT22;5080;48.528;8.078;2023-03-23T10:04:07;15.10;99.90
10083;DHT22;5080;48.528;8.078;2023-03-23T10:06:36;15.30;99.90
10083;DHT22;5080;48.528;8.078;2023-03-23T10:09:05;15.40;99.90
10083;DHT22;5080;48.528;8.078;2023-03-23T10:11:41;15.40;99.90
10083;DHT22;5080;48.528;8.078;2023-03-23T10:14:27;15.40;99.90
10083;DHT22;5080;48.528;8.078;2023-03-23T10:17:00;15.50;99.90
10083;DHT22;5080;48.528;8.078;2023-03-23T10:19:34;15.50;99.90
10083;DHT22;5080;48.528;8.078;2023-03-23T10:22:04;15.50;99.90
10083;DHT22;5080;48.528;8.078;2023-03-23T10:24:36;15.50;99.90
10083;DHT22;5080;48.528;8.078;2023-03-23T10:27:14;15.60;99.90
10083;DHT22;5080;48.528;8.078;2023-03-23T10:29:49;15.60;99.90
10083;DHT22;5080;48.528;8.078;2023-03-23T10:32:20;15.70;99.90
10083;DHT22;5080;48.528;8.078;2023-03-23T10:34:52;15.70;99.90
10083;DHT22;5080;48.528;8.078;2023-03-23T10:37:23;15.70;99.90
10083;DHT22;5080;48.528;8.078;2023-03-23T10:39:56;15.80;99.90
10083;DHT22;5080;48.528;8.078;2023-03-23T10:42:26;15.90;99.90
10083;DHT22;5080;48.528;8.078;2023-03-23T10:44:53;16.00;99.90
10083;DHT22;5080;48.528;8.078;2023-03-23T10:47:22;16.00;99.90
10083;DHT22;5080;48.528;8.078;2023-03-23T10:49:51;16.20;99.90
10083;DHT22;5080;48.528;8.078;2023-03-23T10:52:29;16.40;99.90
10083;DHT22;5080;48.528;8.078;2023-03-23T10:55:07;16.50;99.90
10083;DHT22;5080;48.528;8.078;2023-03-23T10:57:36;16.50;99.90
10083;DHT22;5080;48.528;8.078;2023-03-23T11:00:05;16.60;99.90
10083;DHT22;5080;48.528;8.078;2023-03-23T11:02:39;16.70;99.90
10083;DHT22;5080;48.528;8.078;2023-03-23T11:05:13;16.80;99.90
10083;DHT22;5080;48.528;8.078;2023-03-23T11:07:49;16.80;99.90
10083;DHT22;5080;48.528;8.078;2023-03-23T11:10:23;16.70;99.90
10083;DHT22;5080;48.528;8.078;2023-03-23T11:12:51;16.70;99.90
10083;DHT22;5080;48.528;8.078;2023-03-23T11:15:28;16.70;99.90
10083;DHT22;5080;48.528;8.078;2023-03-23T11:17:58;16.70;99.90
10083;DHT22;5080;48.528;8.078;2023-03-23T11:20:25;16.60;99.90
10083;DHT22;5080;48.528;8.078;2023-03-23T11:22:54;16.50;99.90
10083;DHT22;5080;48.528;8.078;2023-03-23T11:25:23;16.50;99.90
10083;DHT22;5080;48.528;8.078;2023-03-23T11:27:50;16.50;99.90
10083;DHT22;5080;48.528;8.078;2023-03-23T11:30:23;16.40;99.90
10083;DHT22;5080;48.528;8.078;2023-03-23T11:32:52;16.50;99.90
10083;DHT22;5080;48.528;8.078;2023-03-23T11:35:22;16.40;99.90
10083;DHT22;5080;48.528;8.078;2023-03-23T11:37:52;16.30;99.90
10083;DHT22;5080;48.528;8.078;2023-03-23T11:40:23;16.30;99.90
10083;DHT22;5080;48.528;8.078;2023-03-23T11:42:58;16.30;99.90
10083;DHT22;5080;48.528;8.078;2023-03-23T11:45:32;16.30;99.90
10083;DHT22;5080;48.528;8.078;2023-03-23T11:48:10;16.40;99.90
10083;DHT22;5080;48.528;8.078;2023-03-23T11:50:48;16.40;99.90
10083;DHT22;5080;48.528;8.078;2023-03-23T11:53:24;16.50;99.90
10083;DHT22;5080;48.528;8.078;2023-03-23T11:55:59;16.60;99.90
10083;DHT22;5080;48.528;8.078;2023-03-23T11:58:27;16.70;99.90
10083;DHT22;5080;48.528;8.078;2023-03-23T12:01:03;16.80;99.90
10083;DHT22;5080;48.528;8.078;2023-03-23T12:03:45;16.90;99.90
10083;DHT22;5080;48.528;8.078;2023-03-23T12:06:20;17.00;99.90
10083;DHT22;5080;48.528;8.078;2023-03-23T12:09:00;17.10;99.90
10083;DHT22;5080;48.528;8.078;2023-03-23T12:11:54;17.20;99.90
10083;DHT22;5080;48.528;8.078;2023-03-23T12:14:31;17.30;99.90
10083;DHT22;5080;48.528;8.078;2023-03-23T12:17:07;17.30;99.90
10083;DHT22;5080;48.528;8.078;2023-03-23T12:19:42;17.30;99.90
10083;DHT22;5080;48.528;8.078;2023-03-23T12:22:24;17.20;99.90
10083;DHT22;5080;48.528;8.078;2023-03-23T12:25:05;17.30;99.90
10083;DHT22;5080;48.528;8.078;2023-03-23T12:27:40;17.30;99.90
10083;DHT22;5080;48.528;8.078;2023-03-23T12:30:19;17.30;99.90
10083;DHT22;5080;48.528;8.078;2023-03-23T12:33:00;17.40;99.90
10083;DHT22;5080;48.528;8.078;2023-03-23T12:35:39;17.50;99.90
10083;DHT22;5080;48.528;8.078;2023-03-23T12:38:28;17.60;99.90
10083;DHT22;5080;48.528;8.078;2023-03-23T12:41:12;17.70;99.90
10083;DHT22;5080;48.528;8.078;2023-03-23T12:43:50;17.80;99.90
10083;DHT22;5080;48.528;8.078;2023-03-23T12:46:34;17.70;99.90
10083;DHT22;5080;48.528;8.078;2023-03-23T12:49:07;17.80;99.90
10083;DHT22;5080;48.528;8.078;2023-03-23T12:51:42;17.80;99.90
10083;DHT22;5080;48.528;8.078;2023-03-23T12:54:15;17.80;99.90
10083;DHT22;5080;48.528;8.078;2023-03-23T12:56:49;17.90;99.90
10083;DHT22;5080;48.528;8.078;2023-03-23T12:59:23;17.80;99.90
10083;DHT22;5080;48.528;8.078;2023-03-23T13:01:55;17.90;99.90
10083;DHT22;5080;48.528;8.078;2023-03-23T13:04:28;18.00;99.90
10083;DHT22;5080;48.528;8.078;2023-03-23T13:07:00;18.00;99.90
10083;DHT22;5080;48.528;8.078;2023-03-23T13:09:35;18.10;99.90
10083;DHT22;5080;48.528;8.078;2023-03-23T13:12:04;18.30;99.90
10083;DHT22;5080;48.528;8.078;2023-03-23T13:14:41;18.20;99.90
10083;DHT22;5080;48.528;8.078;2023-03-23T13:17:16;18.30;99.90
10083;DHT22;5080;48.528;8.078;2023-03-23T13:20:05;18.30;99.90
10083;DHT22;5080;48.528;8.078;2023-03-23T13:22:41;18.00;99.90
10083;DHT22;5080;48.528;8.078;2023-03-23T13:25:18;18.10;99.90
10083;DHT22;5080;48.528;8.078;2023-03-23T13:27:56;18.10;99.90
10083;DHT22;5080;48.528;8.078;2023-03-23T13:30:26;18.10;99.90
10083;DHT22;5080;48.528;8.078;2023-03-23T13:33:02;18.20;99.90
10083;DHT22;5080;48.528;8.078;2023-03-23T13:35:34;18.30;99.90
10083;DHT22;5080;48.528;8.078;2023-03-23T13:38:02;18.40;99.90
10083;DHT22;5080;48.528;8.078;2023-03-23T13:40:42;18.20;99.90
10083;DHT22;5080;48.528;8.078;2023-03-23T13:43:09;18.20;99.90
10083;DHT22;5080;48.528;8.078;2023-03-23T13:45:45;18.20;99.90
10083;DHT22;5080;48.528;8.078;2023-03-23T13:48:21;18.30;99.90
10083;DHT22;5080;48.528;8.078;2023-03-23T13:50:53;18.30;99.90
10083;DHT22;5080;48.528;8.078;2023-03-23T13:53:25;18.30;99.90
10083;DHT22;5080;48.528;8.078;2023-03-23T13:56:06;18.20;99.90
10083;DHT22;5080;48.528;8.078;2023-03-23T13:58:47;18.20;99.90
10083;DHT22;5080;48.528;8.078;2023-03-23T14:01:18;18.10;99.90
10083;DHT22;5080;48.528;8.078;2023-03-23T14:03:48;18.20;99.90
10083;DHT22;5080;48.528;8.078;2023-03-23T14:06:19;18.20;99.90
10083;DHT22;5080;48.528;8.078;2023-03-23T14:08:49;18.30;99.90
10083;DHT22;5080;48.528;8.078;2023-03-23T14:11:21;18.30;99.90
10083;DHT22;5080;48.528;8.078;2023-03-23T14:14:00;18.40;99.90
10083;DHT22;5080;48.528;8.078;2023-03-23T14:16:37;18.30;99.90
10083;DHT22;5080;48.528;8.078;2023-03-23T14:19:14;18.40;99.90
10083;DHT22;5080;48.528;8.078;2023-03-23T14:21:49;18.50;99.90
10083;DHT22;5080;48.528;8.078;2023-03-23T14:24:19;18.60;99.90
10083;DHT22;5080;48.528;8.078;2023-03-23T14:26:48;18.50;99.90
10083;DHT22;5080;48.528;8.078;2023-03-23T14:29:18;18.60;99.90
10083;DHT22;5080;48.528;8.078;2023-03-23T14:31:50;18.60;99.90
10083;DHT22;5080;48.528;8.078;2023-03-23T14:34:20;18.50;99.90
10083;DHT22;5080;48.528;8.078;2023-03-23T14:36:48;18.50;99.90
10083;DHT22;5080;48.528;8.078;2023-03-23T14:39:20;18.60;99.90
10083;DHT22;5080;48.528;8.078;2023-03-23T14:41:48;18.60;99.90
10083;DHT22;5080;48.528;8.078;2023-03-23T14:44:17;18.50;99.90
10083;DHT22;5080;48.528;8.078;2023-03-23T14:46:46;18.60;99.90
10083;DHT22;5080;48.528;8.078;2023-03-23T14:49:15;18.60;99.90
10083;DHT22;5080;48.528;8.078;2023-03-23T14:51:48;18.60;99.90
10083;DHT22;5080;48.528;8.078;2023-03-23T14:54:15;18.60;99.90
10083;DHT22;5080;48.528;8.078;2023-03-23T14:56:42;18.60;99.90
10083;DHT22;5080;48.528;8.078;2023-03-23T14:59:10;18.60;99.90
10083;DHT22;5080;48.528;8.078;2023-03-23T15:01:39;18.60;99.90
10083;DHT22;5080;48.528;8.078;2023-03-23T15:04:12;18.70;99.90
10083;DHT22;5080;48.528;8.078;2023-03-23T15:06:43;18.70;99.90
10083;DHT22;5080;48.528;8.078;2023-03-23T15:09:13;18.70;99.90
10083;DHT22;5080;48.528;8.078;2023-03-23T15:11:41;18.70;99.90
10083;DHT22;5080;48.528;8.078;2023-03-23T15:14:13;18.70;99.90
10083;DHT22;5080;48.528;8.078;2023-03-23T15:16:46;18.80;99.90
10083;DHT22;5080;48.528;8.078;2023-03-23T15:19:18;18.80;99.90
10083;DHT22;5080;48.528;8.078;2023-03-23T15:21:48;18.80;99.90
10083;DHT22;5080;48.528;8.078;2023-03-23T15:24:24;18.80;99.90
10083;DHT22;5080;48.528;8.078;2023-03-23T15:26:52;18.80;99.90
10083;DHT22;5080;48.528;8.078;2023-03-23T15:29:20;18.80;99.90
10083;DHT22;5080;48.528;8.078;2023-03-23T15:31:51;18.80;99.90
10083;DHT22;5080;48.528;8.078;2023-03-23T15:34:30;18.80;99.90
10083;DHT22;5080;48.528;8.078;2023-03-23T15:37:00;18.80;99.90
10083;DHT22;5080;48.528;8.078;2023-03-23T15:39:28;18.60;99.90
10083;DHT22;5080;48.528;8.078;2023-03-23T15:41:56;18.60;99.90
10083;DHT22;5080;48.528;8.078;2023-03-23T15:44:26;18.60;99.90
10083;DHT22;5080;48.528;8.078;2023-03-23T15:47:03;18.60;99.90
10083;DHT22;5080;48.528;8.078;2023-03-23T15:49:31;18.60;99.90
10083;DHT22;5080;48.528;8.078;2023-03-23T15:51:58;18.50;99.90
10083;DHT22;5080;48.528;8.078;2023-03-23T15:54:30;18.60;99.90
10083;DHT22;5080;48.528;8.078;2023-03-23T15:56:57;18.60;99.90
10083;DHT22;5080;48.528;8.078;2023-03-23T15:59:24;18.60;99.90
10083;DHT22;5080;48.528;8.078;2023-03-23T16:01:51;18.60;99.90
10083;DHT22;5080;48.528;8.078;2023-03-23T16:04:18;18.60;99.90
10083;DHT22;5080;48.528;8.078;2023-03-23T16:06:47;18.60;99.90
10083;DHT22;5080;48.528;8.078;2023-03-23T16:09:17;18.60;99.90